createdAt,value
2023-02-22T00:01:53.723Z,8.08
2023-02-22T00:04:28.413Z,8.10
2023-02-22T00:07:02.708Z,8.09
2023-02-22T00:09:38.300Z,8.09
2023-02-22T00:12:11.683Z,8.09
2023-02-22T00:14:44.255Z,8.08
2023-02-22T00:17:16.629Z,8.07
2023-02-22T00:20:12.489Z,8.07
2023-02-22T00:22:55.491Z,8.08
2023-02-22T00:25:28.948Z,8.07
2023-02-22T00:28:01.844Z,8.06
2023-02-22T00:30:36.076Z,8.06
2023-02-22T00:33:14.055Z,8.04
2023-02-22T00:35:47.038Z,8.04
2023-02-22T00:38:20.554Z,8.03
2023-02-22T00:40:51.260Z,8.03
2023-02-22T00:43:22.769Z,8.03
2023-02-22T00:46:00.322Z,8.03
2023-02-22T00:48:33.921Z,8.04
2023-02-22T00:51:07.798Z,8.06
2023-02-22T00:53:39.059Z,8.04
2023-02-22T00:56:15.748Z,8.05
2023-02-22T00:58:58.652Z,8.05
2023-02-22T01:01:44.972Z,8.05
2023-02-22T01:04:30.375Z,8.04
2023-02-22T01:07:03.008Z,8.06
2023-02-22T01:09:45.753Z,8.06
2023-02-22T01:12:25.665Z,8.03
2023-02-22T01:19:08.520Z,8.07
2023-02-22T01:25:05.752Z,8.02
2023-02-22T01:27:51.996Z,8.02
2023-02-22T01:30:39.586Z,8.01
2023-02-22T01:33:22.639Z,7.19
2023-02-22T01:35:57.412Z,8.03
2023-02-22T01:38:35.929Z,8.04
2023-02-22T01:41:27.104Z,8.05
2023-02-22T01:43:59.549Z,8.02
2023-02-22T01:46:35.267Z,7.99
2023-02-22T01:49:25.996Z,6.37
2023-02-22T01:52:03.596Z,7.44
2023-02-22T01:54:47.385Z,6.16
2023-02-22T01:57:29.086Z,6.11
2023-02-22T02:00:11.429Z,6.17
2023-02-22T02:03:00.051Z,6.58
2023-02-22T02:05:41.908Z,8.00
2023-02-22T02:08:28.967Z,7.91
2023-02-22T02:11:11.543Z,6.24
2023-02-22T02:13:42.038Z,7.98
2023-02-22T02:16:11.826Z,7.99
2023-02-22T02:18:43.205Z,7.97
2023-02-22T02:22:21.098Z,7.96
2023-02-22T02:25:58.009Z,6.28
2023-02-22T02:29:33.279Z,7.52
2023-02-22T02:32:29.099Z,7.95
2023-02-22T02:35:06.177Z,7.93
2023-02-22T02:38:27.598Z,6.20
2023-02-22T02:41:00.934Z,7.92
2023-02-22T02:43:36.195Z,7.30
2023-02-22T02:46:12.045Z,7.88
2023-02-22T02:48:54.879Z,7.15
2023-02-22T02:51:28.990Z,7.84
2023-02-22T02:53:58.787Z,7.84
2023-02-22T02:56:31.113Z,7.83
2023-02-22T03:02:30.439Z,6.16
2023-02-22T03:05:27.301Z,7.79
2023-02-22T03:08:10.680Z,6.79
2023-02-22T03:11:05.247Z,7.33
2023-02-22T03:13:51.328Z,6.90
2023-02-22T03:16:36.192Z,7.04
2023-02-22T03:19:18.940Z,7.09
2023-02-22T03:22:03.962Z,7.18
2023-02-22T03:24:43.728Z,6.12
2023-02-22T03:27:25.917Z,6.60
2023-02-22T03:30:04.544Z,6.06
2023-02-22T03:32:41.667Z,7.33
2023-02-22T03:35:21.964Z,6.11
2023-02-22T03:38:13.017Z,6.09
2023-02-22T03:40:52.949Z,6.42
2023-02-22T03:43:29.490Z,7.74
2023-02-22T03:46:07.572Z,6.34
2023-02-22T03:48:50.854Z,6.27
2023-02-22T03:51:29.475Z,7.65
2023-02-22T03:54:09.029Z,7.66
2023-02-22T03:56:50.490Z,7.63
2023-02-22T03:59:29.477Z,7.62
2023-02-22T04:02:06.417Z,7.58
2023-02-22T04:04:38.643Z,7.56
2023-02-22T04:07:14.534Z,7.55
2023-02-22T04:09:45.534Z,7.52
2023-02-22T04:12:27.573Z,7.13
2023-02-22T04:15:01.613Z,7.53
2023-02-22T04:17:30.790Z,7.54
2023-02-22T04:20:01.388Z,7.57
2023-02-22T04:22:40.313Z,7.56
2023-02-22T04:25:22.874Z,7.54
2023-02-22T04:27:57.890Z,7.54
2023-02-22T04:30:41.156Z,7.55
2023-02-22T04:33:21.593Z,7.54
2023-02-22T04:35:53.578Z,7.57
2023-02-22T04:38:23.706Z,7.55
2023-02-22T04:41:01.454Z,7.55
2023-02-22T04:43:32.683Z,7.55
2023-02-22T04:46:18.932Z,7.54
2023-02-22T04:48:49.953Z,7.60
2023-02-22T04:51:23.121Z,7.58
2023-02-22T04:54:07.574Z,7.56
2023-02-22T04:56:43.100Z,7.53
2023-02-22T04:59:13.906Z,7.49
2023-02-22T05:01:46.975Z,7.49
2023-02-22T05:04:17.186Z,7.49
2023-02-22T05:06:46.203Z,7.52
2023-02-22T05:09:21.338Z,7.51
2023-02-22T05:11:52.869Z,7.51
2023-02-22T05:14:26.732Z,7.51
2023-02-22T05:17:04.317Z,7.50
2023-02-22T05:19:36.000Z,7.49
2023-02-22T05:22:06.965Z,7.48
2023-02-22T05:26:13.953Z,7.48
2023-02-22T05:29:01.736Z,7.48
2023-02-22T05:31:42.311Z,7.46
2023-02-22T05:34:17.416Z,7.43
2023-02-22T05:36:48.698Z,7.43
2023-02-22T05:39:19.289Z,7.41
2023-02-22T05:41:48.416Z,7.39
2023-02-22T05:44:20.292Z,7.40
2023-02-22T05:46:51.221Z,7.43
2023-02-22T05:49:20.457Z,7.43
2023-02-22T05:51:49.436Z,7.45
2023-02-22T05:54:21.160Z,7.45
2023-02-22T05:56:50.084Z,7.43
2023-02-22T05:59:20.937Z,7.41
2023-02-22T06:01:49.842Z,7.45
2023-02-22T06:04:23.336Z,7.46
2023-02-22T06:07:05.445Z,7.46
2023-02-22T06:09:36.571Z,7.47
2023-02-22T06:12:05.750Z,7.47
2023-02-22T06:14:45.875Z,7.48
2023-02-22T06:17:24.005Z,7.48
2023-02-22T06:19:52.834Z,7.49
2023-02-22T06:25:09.724Z,7.56
2023-02-22T06:27:40.776Z,7.62
2023-02-22T06:30:16.775Z,7.66
2023-02-22T06:32:47.263Z,7.72
2023-02-22T06:35:16.430Z,7.79
2023-02-22T06:37:45.264Z,7.83
2023-02-22T06:40:14.933Z,7.88
2023-02-22T06:42:48.642Z,7.91
2023-02-22T06:45:24.415Z,7.95
2023-02-22T06:47:53.447Z,7.96
2023-02-22T06:50:31.647Z,6.72
2023-02-22T06:53:02.765Z,8.03
2023-02-22T06:55:35.482Z,8.07
2023-02-22T06:58:06.880Z,8.10
2023-02-22T07:00:39.977Z,8.15
2023-02-22T07:03:10.268Z,8.15
2023-02-22T07:05:39.440Z,8.22
2023-02-22T07:08:10.654Z,8.25
2023-02-22T07:10:48.414Z,8.25
2023-02-22T07:13:17.502Z,8.32
2023-02-22T07:15:50.816Z,8.39
2023-02-22T07:18:24.380Z,8.45
2023-02-22T07:20:55.592Z,8.46
2023-02-22T07:23:24.723Z,8.49
2023-02-22T07:25:53.719Z,8.55
2023-02-22T07:28:30.076Z,8.63
2023-02-22T07:31:01.550Z,8.67
2023-02-22T07:33:30.726Z,8.70
2023-02-22T07:35:59.618Z,8.79
2023-02-22T07:38:28.857Z,8.83
2023-02-22T07:40:58.788Z,8.92
2023-02-22T07:43:54.413Z,7.06
2023-02-22T07:46:31.165Z,9.06
2023-02-22T07:49:00.233Z,9.13
2023-02-22T07:51:32.917Z,9.17
2023-02-22T07:54:02.045Z,9.25
2023-02-22T07:56:31.108Z,9.32
2023-02-22T07:59:01.742Z,9.36
2023-02-22T08:01:32.517Z,9.41
2023-02-22T08:04:03.633Z,9.40
2023-02-22T08:06:35.631Z,9.40
2023-02-22T08:09:04.735Z,9.40
2023-02-22T08:11:35.502Z,9.42
2023-02-22T08:14:04.514Z,9.50
2023-02-22T08:16:37.955Z,9.59
2023-02-22T08:19:07.110Z,9.64
2023-02-22T08:21:39.356Z,9.64
2023-02-22T08:24:10.113Z,9.70
2023-02-22T08:26:40.081Z,9.78
2023-02-22T08:29:09.177Z,9.81
2023-02-22T08:31:44.075Z,9.84
2023-02-22T08:34:13.292Z,9.92
2023-02-22T08:37:04.149Z,9.98
2023-02-22T08:39:34.243Z,10.07
2023-02-22T08:42:21.114Z,10.15
2023-02-22T08:44:52.582Z,10.29
2023-02-22T08:47:25.309Z,10.37
2023-02-22T08:49:54.753Z,10.41
2023-02-22T08:52:23.891Z,10.45
2023-02-22T08:54:52.992Z,10.47
2023-02-22T08:57:21.992Z,10.46
2023-02-22T08:59:50.981Z,10.52
2023-02-22T09:02:23.437Z,10.01
2023-02-22T09:04:52.445Z,10.75
2023-02-22T09:07:21.668Z,10.80
2023-02-22T09:09:50.659Z,10.88
2023-02-22T09:12:19.741Z,10.87
2023-02-22T09:14:48.640Z,10.85
2023-02-22T09:17:17.829Z,10.87
2023-02-22T09:19:48.270Z,10.87
2023-02-22T09:22:17.346Z,10.94
2023-02-22T09:24:46.300Z,11.10
2023-02-22T09:27:15.212Z,11.16
2023-02-22T09:29:44.209Z,11.28
2023-02-22T09:32:13.262Z,11.35
2023-02-22T09:34:45.954Z,11.46
2023-02-22T09:37:17.825Z,11.47
2023-02-22T09:39:47.050Z,11.48
2023-02-22T09:42:32.105Z,11.40
2023-02-22T09:45:13.665Z,10.74
2023-02-22T09:47:56.298Z,9.80
2023-02-22T09:50:33.198Z,11.45
2023-02-22T09:53:17.944Z,11.31
2023-02-22T09:55:52.734Z,9.83
2023-02-22T09:58:33.462Z,10.01
2023-02-22T10:01:26.594Z,10.31
2023-02-22T10:04:06.622Z,9.93
2023-02-22T10:06:37.630Z,9.97
2023-02-22T10:09:10.402Z,11.60
2023-02-22T10:11:59.406Z,11.70
2023-02-22T10:14:46.549Z,11.86
2023-02-22T10:17:28.477Z,11.96
2023-02-22T10:20:26.638Z,10.95
2023-02-22T10:23:12.185Z,12.05
2023-02-22T10:25:52.196Z,11.08
2023-02-22T10:28:32.592Z,10.66
2023-02-22T10:31:09.864Z,10.59
2023-02-22T10:33:47.703Z,12.41
2023-02-22T10:36:27.413Z,12.64
2023-02-22T10:39:00.406Z,11.46
2023-02-22T10:41:39.098Z,12.57
2023-02-22T10:44:10.565Z,12.66
2023-02-22T10:46:42.137Z,12.74
2023-02-22T10:49:33.047Z,12.28
2023-02-22T10:52:10.242Z,11.99
2023-02-22T10:54:43.940Z,11.59
2023-02-22T10:57:15.055Z,13.07
2023-02-22T10:59:46.376Z,13.08
2023-02-22T11:02:25.696Z,12.99
2023-02-22T11:05:00.734Z,12.03
2023-02-22T11:07:33.050Z,13.01
2023-02-22T11:10:08.215Z,12.91
2023-02-22T11:12:45.603Z,12.78
2023-02-22T11:15:31.363Z,12.75
2023-02-22T11:18:03.775Z,13.07
2023-02-22T11:20:40.505Z,11.92
2023-02-22T11:23:09.432Z,13.16
2023-02-22T11:25:47.141Z,12.81
2023-02-22T11:28:30.901Z,12.74
2023-02-22T11:31:25.703Z,12.88
2023-02-22T11:33:58.866Z,12.09
2023-02-22T11:36:46.826Z,13.34
2023-02-22T11:39:29.318Z,12.07
2023-02-22T11:42:06.055Z,13.23
2023-02-22T11:44:43.987Z,13.19
2023-02-22T11:47:22.652Z,12.33
2023-02-22T11:49:53.515Z,13.43
2023-02-22T11:52:32.199Z,13.47
2023-02-22T11:55:41.150Z,12.95
2023-02-22T11:58:37.258Z,13.68
2023-02-22T12:01:18.270Z,13.73
2023-02-22T12:04:40.528Z,13.58
2023-02-22T12:07:43.662Z,13.40
2023-02-22T12:10:49.052Z,12.02
2023-02-22T12:13:43.565Z,13.30
2023-02-22T12:16:39.533Z,12.39
2023-02-22T12:19:30.443Z,13.28
2023-02-22T12:22:07.937Z,12.88
2023-02-22T12:24:44.476Z,13.48
2023-02-22T12:27:32.465Z,12.53
2023-02-22T12:30:17.861Z,13.42
2023-02-22T12:32:59.192Z,12.35
2023-02-22T12:35:45.032Z,12.84
2023-02-22T12:39:14.691Z,11.79
2023-02-22T12:42:12.809Z,13.36
2023-02-22T12:44:58.948Z,12.28
2023-02-22T12:48:05.007Z,12.09
2023-02-22T12:50:46.076Z,13.38
2023-02-22T12:53:23.639Z,13.43
2023-02-22T12:56:17.263Z,12.23
2023-02-22T12:59:05.564Z,13.14
2023-02-22T13:02:10.881Z,11.08
2023-02-22T13:04:43.412Z,12.76
2023-02-22T13:07:30.591Z,12.73
2023-02-22T13:10:32.808Z,10.85
2023-02-22T13:13:16.031Z,10.89
2023-02-22T13:16:15.215Z,11.37
2023-02-22T13:18:59.633Z,12.35
2023-02-22T13:21:43.150Z,13.08
2023-02-22T13:24:27.216Z,12.00
2023-02-22T13:27:00.860Z,13.18
2023-02-22T13:29:40.473Z,11.60
2023-02-22T13:32:44.163Z,13.20
2023-02-22T13:35:37.940Z,13.13
2023-02-22T13:39:05.413Z,11.53
2023-02-22T13:42:23.675Z,12.22
2023-02-22T13:45:56.846Z,12.27
2023-02-22T13:49:13.647Z,11.96
2023-02-22T13:51:57.274Z,11.75
2023-02-22T13:54:41.766Z,11.94
2023-02-22T13:57:24.450Z,11.68
2023-02-22T14:00:52.320Z,12.27
2023-02-22T14:03:49.780Z,12.45
2023-02-22T14:06:42.933Z,10.67
2023-02-22T14:09:23.961Z,11.43
2023-02-22T14:11:58.258Z,11.99
2023-02-22T14:14:29.050Z,11.78
2023-02-22T14:17:27.167Z,11.28
2023-02-22T14:20:36.677Z,10.74
2023-02-22T14:23:36.466Z,11.67
2023-02-22T14:26:16.750Z,11.38
2023-02-22T14:28:55.982Z,11.58
2023-02-22T14:31:37.361Z,11.50
2023-02-22T14:34:10.715Z,11.23
2023-02-22T14:36:56.347Z,11.14
2023-02-22T14:39:32.898Z,11.04
2023-02-22T14:42:17.230Z,9.35
2023-02-22T14:45:12.991Z,11.27
2023-02-22T14:48:15.352Z,11.09
2023-02-22T14:50:53.037Z,11.30
2023-02-22T14:53:46.290Z,11.32
2023-02-22T14:56:36.493Z,9.36
2023-02-22T14:59:22.252Z,10.82
2023-02-22T15:02:19.152Z,10.00
2023-02-22T15:04:56.849Z,10.95
2023-02-22T15:07:29.219Z,10.98
2023-02-22T15:10:20.774Z,10.41
2023-02-22T15:13:11.042Z,10.92
2023-02-22T15:15:46.942Z,10.87
2023-02-22T15:18:34.348Z,10.77
2023-02-22T15:21:18.301Z,10.74
2023-02-22T15:23:58.586Z,10.19
2023-02-22T15:26:44.370Z,10.54
2023-02-22T15:29:28.317Z,8.43
2023-02-22T15:32:05.622Z,10.23
2023-02-22T15:34:37.928Z,10.15
2023-02-22T15:37:25.092Z,10.11
2023-02-22T15:40:00.543Z,10.07
2023-02-22T15:42:32.669Z,10.10
2023-02-22T15:45:02.876Z,10.06
2023-02-22T15:47:35.267Z,10.07
2023-02-22T15:50:23.743Z,10.05
2023-02-22T15:52:59.271Z,9.15
2023-02-22T15:55:31.211Z,10.01
2023-02-22T15:58:03.187Z,9.96
2023-02-22T16:00:38.246Z,9.59
2023-02-22T16:03:09.371Z,9.82
2023-02-22T16:05:43.342Z,9.72
2023-02-22T16:08:21.169Z,7.93
2023-02-22T16:10:59.801Z,9.69
2023-02-22T16:13:32.745Z,9.59
2023-02-22T16:16:05.670Z,9.23
2023-02-22T16:18:36.689Z,9.60
2023-02-22T16:21:11.917Z,9.53
2023-02-22T16:23:48.921Z,9.52
2023-02-22T16:26:30.995Z,9.15
2023-02-22T16:29:02.835Z,9.42
2023-02-22T16:31:37.903Z,9.50
2023-02-22T16:34:09.336Z,9.48
2023-02-22T16:36:42.249Z,9.47
2023-02-22T16:39:20.256Z,8.79
2023-02-22T16:41:49.406Z,9.40
2023-02-22T16:44:23.088Z,9.38
2023-02-22T16:46:52.044Z,9.34
2023-02-22T16:49:23.162Z,9.33
2023-02-22T16:51:55.634Z,8.92
2023-02-22T16:54:29.329Z,9.29
2023-02-22T16:57:02.045Z,9.31
2023-02-22T16:59:36.924Z,9.22
2023-02-22T17:02:07.700Z,9.30
2023-02-22T17:04:40.258Z,9.31
2023-02-22T17:07:10.795Z,9.31
2023-02-22T17:09:42.766Z,9.30
2023-02-22T17:12:11.900Z,9.30
2023-02-22T17:14:42.238Z,9.27
2023-02-22T17:17:16.329Z,9.24
2023-02-22T17:19:45.494Z,9.23
2023-02-22T17:22:22.609Z,9.23
2023-02-22T17:24:53.730Z,9.22
2023-02-22T17:27:22.661Z,9.22
2023-02-22T17:29:54.785Z,9.20
2023-02-22T17:32:25.981Z,9.18
2023-02-22T17:34:57.990Z,9.18
2023-02-22T17:37:28.632Z,9.19
2023-02-22T17:40:15.070Z,9.17
2023-02-22T17:43:12.377Z,9.15
2023-02-22T17:46:07.646Z,9.15
2023-02-22T17:48:39.535Z,9.13
2023-02-22T17:51:15.294Z,9.13
2023-02-22T17:53:48.547Z,9.12
2023-02-22T17:56:20.555Z,7.95
2023-02-22T17:58:58.774Z,9.08
2023-02-22T18:01:33.326Z,7.46
2023-02-22T18:04:09.818Z,9.06
2023-02-22T18:06:41.316Z,9.05
2023-02-22T18:09:12.982Z,9.05
2023-02-22T18:11:43.633Z,9.04
2023-02-22T18:14:13.011Z,9.02
2023-02-22T18:16:45.434Z,9.01
2023-02-22T18:19:23.032Z,9.00
2023-02-22T18:21:52.569Z,8.98
2023-02-22T18:24:23.078Z,8.98
2023-02-22T18:26:54.451Z,8.98
2023-02-22T18:29:23.425Z,8.95
2023-02-22T18:31:56.410Z,8.96
2023-02-22T18:34:30.172Z,8.97
2023-02-22T18:37:01.304Z,8.95
2023-02-22T18:39:45.341Z,8.92
2023-02-22T18:42:17.514Z,8.88
2023-02-22T18:44:46.663Z,8.83
2023-02-22T18:47:17.800Z,8.78
2023-02-22T18:49:47.273Z,8.69
2023-02-22T18:52:18.781Z,8.60
2023-02-22T18:54:55.459Z,7.41
2023-02-22T18:57:40.631Z,8.41
2023-02-22T19:03:09.758Z,8.17
2023-02-22T19:05:39.089Z,8.07
2023-02-22T19:08:13.509Z,7.99
2023-02-22T19:10:56.533Z,7.93
2023-02-22T19:13:36.800Z,7.82
2023-02-22T19:16:35.922Z,7.75
2023-02-22T19:19:13.584Z,7.68
2023-02-22T19:21:42.870Z,7.18
2023-02-22T19:24:19.404Z,7.57
2023-02-22T19:26:50.908Z,7.57
2023-02-22T19:29:22.447Z,7.50
2023-02-22T19:31:54.999Z,7.46
2023-02-22T19:34:26.012Z,7.40
2023-02-22T19:37:05.384Z,7.36
2023-02-22T19:39:38.458Z,7.38
2023-02-22T19:42:12.056Z,7.37
2023-02-22T19:44:41.353Z,7.31
2023-02-22T19:47:13.937Z,7.26
2023-02-22T19:49:42.890Z,7.18
2023-02-22T19:52:13.812Z,7.14
2023-02-22T19:54:53.789Z,7.15
2023-02-22T19:57:27.203Z,7.07
2023-02-22T19:59:56.305Z,6.96
2023-02-22T20:02:27.609Z,6.91
2023-02-22T20:05:00.152Z,6.88
2023-02-22T20:07:29.351Z,6.89
2023-02-22T20:09:58.383Z,6.81
2023-02-22T20:12:31.019Z,6.91
2023-02-22T20:15:01.419Z,6.87
2023-02-22T20:17:30.519Z,6.78
2023-02-22T20:19:59.676Z,6.85
2023-02-22T20:22:28.868Z,6.92
2023-02-22T20:24:58.029Z,6.83
2023-02-22T20:27:31.562Z,6.74
2023-02-22T20:30:01.967Z,6.74
2023-02-22T20:32:32.365Z,6.66
2023-02-22T20:35:01.855Z,6.71
2023-02-22T20:37:31.643Z,6.73
2023-02-22T20:40:07.397Z,6.73
2023-02-22T20:51:50.102Z,6.58
2023-02-22T20:53:34.542Z,6.63
2023-02-22T20:54:41.833Z,6.55
2023-02-22T20:57:14.017Z,6.47
2023-02-22T20:59:44.352Z,6.47
2023-02-22T21:02:15.761Z,6.43
2023-02-22T21:04:50.126Z,6.47
2023-02-22T21:07:22.486Z,6.54
2023-02-22T21:09:51.546Z,6.53
2023-02-22T21:12:20.614Z,6.51
2023-02-22T21:14:49.635Z,6.49
2023-02-22T21:17:29.095Z,6.54
2023-02-22T21:19:58.452Z,6.09
2023-02-22T21:22:31.546Z,6.45
2023-02-22T21:25:38.963Z,6.43
2023-02-22T21:28:08.146Z,6.38
